KDNV/DNV METAR and TAF weather

Enter ICAO airport designator
Station Type Date Time Source
KDNV METAR 2021/05/10 23:55 UTC NOAA

KDNV 102355Z AUTO 02003KT 10SM -RA OVC070 11/09 A3013 RMK AO2 T01100091 10167 20110


Station Type Date Time Source
KDNV Decoded METAR 2021/05/10 23:55 UTC NOAA

Danville, Vermilion County Airport, IL, United States (KDNV) 40-11-58N 087-35-44W
May 10, 2021 - 07:55 PM EDT / 2021.05.10 2355 UTC
Wind: from the NNE (020 degrees) at 3 MPH (3 KT):0
Visibility: 10 mile(s):0
Sky conditions: overcast
Weather: light rain
Temperature: 51.8 F (11.0 C)
Dew Point: 48.4 F (9.1 C)
Relative Humidity: 88%
Pressure (altimeter): 30.13 in. Hg (1020 hPa)
ob: KDNV 102355Z AUTO 02003KT 10SM -RA OVC070 11/09 A3013 RMK AO2 T01100091 10167 20110
cycle: 0

Station Type Date Time Source
KDNV TAF UTC NOAA

Error!

Example: see airport list